Time;durP1;ratioP1;P1;durP2;ratioP2;P2;SDS_P1;SDS_P2;PMS_P1;PMS_P2;Temp;Humidity;BMP_temperature;BMP_pressure;BME280_temperature;BME280_humidity;BME280_pressure;Samples;Min_cycle;Max_cycle;Signal;HPM_P1;HPM_P2
2022/11/05 05:00:33;;;;;;;15.57;8.10;;;10.50;99.90;;;;;;6062104;23;20028;31
2022/11/05 05:02:59;;;;;;;9.60;6.53;;;10.40;99.90;;;;;;4896120;29;19930;-70
2022/11/05 05:05:24;;;;;;;8.33;5.90;;;10.50;99.90;;;;;;4898185;29;20024;-69
2022/11/05 05:07:51;;;;;;;10.27;5.63;;;10.40;99.90;;;;;;4898501;29;20057;-70
2022/11/05 05:10:17;;;;;;;7.35;5.10;;;10.50;99.90;;;;;;4898626;29;20032;-70
2022/11/05 05:12:42;;;;;;;8.23;5.70;;;10.40;99.90;;;;;;4899066;29;20055;-71
2022/11/05 05:15:08;;;;;;;9.43;5.80;;;10.40;99.90;;;;;;4913706;29;20509;-68
2022/11/05 05:17:33;;;;;;;8.07;5.57;;;10.40;99.90;;;;;;4898125;29;20033;-68
2022/11/05 05:22:49;;;;;;;9.25;5.85;;;10.30;99.90;;;;;;4898544;29;20134;-67
2022/11/05 05:25:15;;;;;;;7.75;5.00;;;10.40;99.90;;;;;;4898385;29;20083;-67
2022/11/05 05:27:40;;;;;;;8.87;5.73;;;10.40;99.90;;;;;;4898404;29;20040;-67
2022/11/05 05:30:06;;;;;;;9.53;6.10;;;10.40;99.90;;;;;;4898117;29;20481;-67
2022/11/05 05:32:32;;;;;;;9.90;5.90;;;10.40;99.90;;;;;;4896492;29;20056;-67
2022/11/05 05:34:57;;;;;;;9.03;6.03;;;10.40;99.90;;;;;;4898509;29;20100;-67
2022/11/05 05:37:23;;;;;;;12.57;6.20;;;10.40;99.90;;;;;;4898260;29;20065;-67
2022/11/05 05:39:48;;;;;;;9.70;4.93;;;10.30;99.90;;;;;;4898737;29;20251;-69
2022/11/05 05:42:14;;;;;;;10.10;5.50;;;10.30;99.90;;;;;;4909687;29;20032;-68
2022/11/05 05:44:40;;;;;;;10.47;4.93;;;10.30;99.90;;;;;;4900990;29;20115;-67
2022/11/05 05:47:05;;;;;;;6.97;5.03;;;10.20;99.90;;;;;;4897798;29;20033;-68
2022/11/05 05:49:31;;;;;;;7.33;4.87;;;10.20;99.90;;;;;;4898567;29;20029;-68
2022/11/05 05:51:56;;;;;;;9.03;4.93;;;10.20;99.90;;;;;;4898010;29;20085;-67
2022/11/05 05:54:22;;;;;;;12.00;6.23;;;10.20;99.90;;;;;;4897969;29;20036;-68
2022/11/05 05:56:48;;;;;;;9.13;5.27;;;10.30;99.90;;;;;;4897836;29;20067;-68
2022/11/05 05:59:13;;;;;;;7.80;5.30;;;10.30;99.90;;;;;;4898287;29;20060;-67
2022/11/05 06:01:39;;;;;;;9.40;5.93;;;10.30;99.90;;;;;;4897681;29;20044;-67
2022/11/05 06:04:05;;;;;;;8.07;5.53;;;10.20;99.90;;;;;;4901526;29;20025;-68
2022/11/05 06:06:30;;;;;;;8.47;5.37;;;10.20;99.90;;;;;;4901477;29;20036;-68
2022/11/05 06:08:56;;;;;;;9.33;6.10;;;10.20;99.90;;;;;;4901489;29;20637;-67
2022/11/05 06:11:23;;;;;;;8.70;5.43;;;10.20;99.90;;;;;;4901672;29;20040;-67
2022/11/05 06:13:48;;;;;;;8.05;4.90;;;10.10;99.90;;;;;;4901352;29;20116;-67
2022/11/05 06:16:14;;;;;;;8.77;5.23;;;10.10;99.90;;;;;;4901233;29;20478;-68
2022/11/05 06:18:39;;;;;;;8.38;4.68;;;10.10;99.90;;;;;;4901666;29;20037;-68
2022/11/05 06:21:14;;;;;;;9.50;4.80;;;10.20;99.90;;;;;;4901818;29;20033;-67
2022/11/05 06:23:42;;;;;;;8.90;5.00;;;10.10;99.90;;;;;;4901330;29;20108;-67
2022/11/05 06:26:11;;;;;;;9.38;5.45;;;10.00;99.90;;;;;;4901014;29;20025;-68
2022/11/05 06:28:37;;;;;;;9.82;5.55;;;10.00;99.90;;;;;;4900916;29;20037;-67
2022/11/05 06:31:03;;;;;;;11.25;5.80;;;9.90;99.90;;;;;;4899532;29;20028;-67
2022/11/05 06:33:28;;;;;;;9.73;5.65;;;9.90;99.90;;;;;;4898945;29;20039;-67
2022/11/05 06:35:56;;;;;;;9.87;5.77;;;9.90;99.90;;;;;;4901466;29;20036;-68
2022/11/05 06:38:22;;;;;;;11.73;6.00;;;10.00;99.90;;;;;;4915953;29;20028;-69
2022/11/05 06:40:47;;;;;;;9.43;6.10;;;9.90;99.90;;;;;;4901041;29;20027;-69
2022/11/05 06:43:13;;;;;;;10.33;5.93;;;9.80;99.90;;;;;;4899647;29;20321;-68
2022/11/05 06:45:39;;;;;;;9.43;5.93;;;9.90;99.90;;;;;;4886419;29;20105;-68
2022/11/05 06:48:05;;;;;;;11.63;6.53;;;9.90;99.90;;;;;;4897556;29;20068;-68
2022/11/05 06:50:30;;;;;;;9.57;5.93;;;9.90;99.90;;;;;;4899482;29;20056;-69
2022/11/05 06:53:00;;;;;;;10.87;5.33;;;9.90;99.90;;;;;;4901018;29;20064;-68
2022/11/05 06:55:28;;;;;;;10.48;6.53;;;10.00;99.90;;;;;;4900885;29;20489;-69
2022/11/05 06:57:54;;;;;;;8.52;6.25;;;10.00;99.90;;;;;;4900804;29;20481;-68
2022/11/05 07:00:20;;;;;;;11.43;6.20;;;10.00;99.90;;;;;;4900425;29;20052;-68
2022/11/05 07:02:46;;;;;;;8.93;5.13;;;10.00;99.90;;;;;;4900492;29;20103;-68
2022/11/05 07:05:13;;;;;;;14.30;5.72;;;10.00;99.90;;;;;;4900571;29;20161;-67
2022/11/05 07:07:39;;;;;;;7.65;5.20;;;10.00;99.90;;;;;;4899283;29;20438;-68
2022/11/05 07:10:07;;;;;;;8.93;5.43;;;10.00;99.90;;;;;;4899171;29;20071;-68
2022/11/05 07:12:32;;;;;;;7.03;4.50;;;10.10;99.90;;;;;;4899717;29;20044;-68
2022/11/05 07:14:58;;;;;;;7.77;4.57;;;10.00;99.90;;;;;;4900254;29;20037;-68
2022/11/05 07:17:23;;;;;;;7.87;4.50;;;10.20;99.90;;;;;;4899943;29;20060;-68
2022/11/05 07:19:49;;;;;;;8.13;4.20;;;10.10;99.90;;;;;;4899097;29;20123;-68
2022/11/05 07:22:14;;;;;;;8.63;4.73;;;10.10;99.90;;;;;;4899164;29;20088;-68
2022/11/05 07:24:40;;;;;;;7.40;4.37;;;10.10;99.90;;;;;;4914722;29;20423;-66
2022/11/05 07:27:05;;;;;;;9.27;4.47;;;10.10;99.90;;;;;;4898867;29;20024;-67
2022/11/05 07:29:31;;;;;;;8.33;4.60;;;10.10;99.90;;;;;;4900386;29;20033;-67
2022/11/05 07:31:56;;;;;;;6.70;3.67;;;10.10;99.90;;;;;;4900275;29;20035;-68
2022/11/05 07:34:22;;;;;;;6.03;4.03;;;10.20;99.90;;;;;;4900202;29;20025;-67
2022/11/05 07:36:47;;;;;;;6.90;4.17;;;10.20;99.90;;;;;;4900112;29;20100;-68
2022/11/05 07:39:13;;;;;;;5.80;3.87;;;10.20;99.90;;;;;;4899872;29;20067;-68
2022/11/05 07:41:38;;;;;;;7.17;4.10;;;10.30;99.90;;;;;;4899824;29;20029;-67
2022/11/05 07:44:04;;;;;;;5.47;3.83;;;10.30;99.90;;;;;;4891238;29;20033;-68
2022/11/05 07:46:30;;;;;;;7.13;3.83;;;10.40;99.90;;;;;;4896199;29;20032;-67
2022/11/05 07:48:55;;;;;;;5.75;4.05;;;10.40;99.90;;;;;;4887473;29;20273;-69
2022/11/05 07:51:21;;;;;;;6.37;3.97;;;10.40;99.90;;;;;;4880602;29;20073;-68
2022/11/05 07:53:47;;;;;;;6.60;4.07;;;10.30;99.90;;;;;;4896398;29;20029;-67
2022/11/05 07:56:13;;;;;;;6.85;3.92;;;10.30;99.90;;;;;;4894749;29;20418;-67
2022/11/05 07:58:39;;;;;;;4.88;3.30;;;10.20;99.90;;;;;;4897665;29;20088;-69
2022/11/05 08:01:05;;;;;;;5.27;3.80;;;10.30;99.90;;;;;;4883558;29;20033;-69
2022/11/05 08:03:32;;;;;;;4.82;3.55;;;10.40;99.90;;;;;;4899025;29;20032;-68
2022/11/05 08:05:58;;;;;;;5.97;3.97;;;10.40;99.90;;;;;;4902523;29;20025;-69
2022/11/05 08:08:24;;;;;;;5.68;3.40;;;10.40;99.90;;;;;;4903155;29;20036;-68
2022/11/05 08:10:50;;;;;;;6.93;4.35;;;10.50;99.90;;;;;;4895971;29;20571;-68
2022/11/05 08:13:16;;;;;;;8.05;3.70;;;10.50;99.90;;;;;;4890701;29;20068;-67
2022/11/05 08:15:42;;;;;;;8.82;5.32;;;10.60;99.90;;;;;;4895615;29;20104;-68
2022/11/05 08:18:14;;;;;;;6.07;4.20;;;10.50;99.90;;;;;;4889739;29;20033;-67
2022/11/05 08:20:41;;;;;;;5.90;3.88;;;10.50;99.90;;;;;;4900639;29;20116;-67
2022/11/05 08:23:07;;;;;;;7.20;3.47;;;10.60;99.90;;;;;;4906232;29;20498;-66
2022/11/05 08:25:34;;;;;;;6.60;3.75;;;10.60;99.90;;;;;;4904915;29;20052;-67
2022/11/05 08:28:06;;;;;;;9.30;4.78;;;10.60;99.90;;;;;;4908932;29;20063;-67
2022/11/05 08:30:33;;;;;;;7.35;4.15;;;10.70;99.90;;;;;;4910650;29;20039;-68
2022/11/05 08:33:02;;;;;;;;;;;10.70;99.90;;;;;;4913578;29;20016;-73
2022/11/05 08:35:28;;;;;;;5.60;3.70;;;10.80;99.90;;;;;;4917963;29;19911;-73
2022/11/05 08:37:59;;;;;;;6.37;3.73;;;10.80;99.90;;;;;;4901726;29;20037;-74
2022/11/05 08:40:26;;;;;;;6.70;4.18;;;10.90;99.90;;;;;;4903023;29;20273;-72
2022/11/05 08:42:54;;;;;;;7.15;3.90;;;11.00;99.90;;;;;;4902726;29;20025;-73
2022/11/05 08:45:20;;;;;;;7.72;3.63;;;11.00;99.90;;;;;;4878997;29;20025;-76
2022/11/05 08:47:46;;;;;;;4.67;3.93;;;11.10;99.90;;;;;;4881549;29;20021;-73
2022/11/05 08:50:11;;;;;;;6.67;3.23;;;11.20;99.90;;;;;;4895276;29;20035;-71
2022/11/05 08:52:39;;;;;;;6.40;3.73;;;11.20;99.90;;;;;;4898300;29;20028;-70
2022/11/05 08:55:05;;;;;;;6.15;3.38;;;11.30;99.90;;;;;;4898406;29;20064;-75
2022/11/05 08:57:31;;;;;;;7.05;3.83;;;11.40;99.90;;;;;;4897079;29;20067;-71
2022/11/05 08:59:56;;;;;;;5.07;3.43;;;11.40;99.90;;;;;;4899237;29;20619;-75
2022/11/05 09:02:22;;;;;;;6.03;3.87;;;11.40;99.90;;;;;;4898713;29;20513;-76
2022/11/05 09:04:47;;;;;;;9.37;3.53;;;11.20;99.90;;;;;;4884360;29;20115;-75
2022/11/05 09:07:13;;;;;;;5.17;3.20;;;11.20;99.90;;;;;;4881815;29;20269;-74
2022/11/05 09:09:38;;;;;;;6.40;2.97;;;11.10;99.90;;;;;;4883007;29;20033;-77
2022/11/05 09:12:04;;;;;;;5.37;3.10;;;11.10;99.90;;;;;;4896967;29;20025;-76
2022/11/05 09:14:30;;;;;;;6.85;3.55;;;11.10;99.90;;;;;;4898501;29;20500;-76
2022/11/05 09:16:56;;;;;;;5.38;3.00;;;11.00;99.90;;;;;;4886070;29;20033;-76
2022/11/05 09:19:21;;;;;;;6.70;3.07;;;11.00;99.90;;;;;;4901069;29;20470;-74
2022/11/05 09:21:47;;;;;;;4.90;3.30;;;11.00;99.90;;;;;;4901369;29;20474;-72
2022/11/05 09:24:12;;;;;;;5.37;2.77;;;11.00;99.90;;;;;;4901726;29;20063;-77
2022/11/05 09:26:38;;;;;;;8.80;3.10;;;11.00;99.90;;;;;;4883232;29;20029;-77
2022/11/05 09:29:03;;;;;;;6.80;2.70;;;11.10;99.90;;;;;;4895375;29;20040;-72
2022/11/05 09:31:29;;;;;;;7.10;2.77;;;11.10;99.90;;;;;;4880848;29;20041;-76
2022/11/05 09:33:54;;;;;;;7.07;3.17;;;11.20;99.90;;;;;;4897480;29;20132;-74
2022/11/05 09:36:20;;;;;;;3.47;2.60;;;11.30;99.90;;;;;;4899889;29;20037;-74
2022/11/05 09:38:46;;;;;;;4.70;2.83;;;11.20;99.90;;;;;;4903274;29;20142;-73
2022/11/05 09:41:29;;;;;;;6.30;2.93;;;11.30;99.90;;;;;;4902783;29;20033;-74
2022/11/05 09:44:14;;;;;;;5.30;3.25;;;11.30;99.90;;;;;;4902420;29;20118;-71
2022/11/05 09:46:44;;;;;;;4.82;3.50;;;11.30;99.90;;;;;;4900774;29;20032;-74
2022/11/05 09:49:38;;;;;;;3.40;2.53;;;11.30;99.90;;;;;;4902195;29;20036;-74
2022/11/05 09:52:05;;;;;;;5.40;2.63;;;11.10;99.90;;;;;;4884603;29;20036;-71
2022/11/05 09:54:32;;;;;;;5.75;3.10;;;11.20;99.90;;;;;;4896794;29;20102;-69
2022/11/05 09:57:00;;;;;;;4.47;2.75;;;11.30;99.90;;;;;;4900833;29;20028;-74
2022/11/05 09:59:40;;;;;;;4.78;3.10;;;11.50;99.90;;;;;;4902029;29;20398;-67
2022/11/05 10:02:16;;;;;;;7.65;5.60;;;11.80;99.90;;;;;;4901163;29;20040;-68
2022/11/05 10:04:45;;;;;;;5.97;3.47;;;12.40;99.90;;;;;;4902095;29;20085;-70
2022/11/05 10:07:19;;;;;;;6.20;3.08;;;12.70;99.90;;;;;;4885622;29;20048;-67
2022/11/05 10:09:48;;;;;;;10.40;3.10;;;13.00;99.90;;;;;;4896704;29;20056;-67
2022/11/05 10:12:23;;;;;;;4.93;2.95;;;13.00;99.90;;;;;;4885754;29;20033;-71
2022/11/05 10:15:02;;;;;;;6.75;2.95;;;13.10;99.90;;;;;;4883538;29;20447;-72
2022/11/05 10:17:28;;;;;;;5.20;3.17;;;13.00;99.90;;;;;;4882280;29;20487;-68
2022/11/05 10:20:03;;;;;;;4.60;3.10;;;12.70;99.90;;;;;;4883031;29;20036;-67
2022/11/05 10:22:29;;;;;;;5.65;3.28;;;12.50;99.90;;;;;;4884547;29;20032;-66
2022/11/05 10:24:55;;;;;;;4.03;2.90;;;12.10;99.90;;;;;;4889741;29;20037;-68
2022/11/05 10:27:33;;;;;;;5.78;3.30;;;12.20;99.90;;;;;;4886177;29;20033;-68
2022/11/05 10:29:59;;;;;;;8.25;3.90;;;12.50;99.90;;;;;;4894669;29;20513;-68
2022/11/05 10:32:28;;;;;;;5.32;3.00;;;12.80;99.90;;;;;;4899384;29;20069;-69
2022/11/05 10:34:58;;;;;;;7.63;3.67;;;12.80;99.90;;;;;;4900083;29;20437;-67
2022/11/05 10:37:25;;;;;;;7.15;4.03;;;12.90;99.90;;;;;;4899561;29;20025;-68
2022/11/05 10:39:51;;;;;;;6.32;3.90;;;13.00;99.90;;;;;;4900905;29;20040;-68
2022/11/05 10:42:46;;;;;;;5.95;2.90;;;13.40;99.90;;;;;;4900990;29;20073;-68
2022/11/05 10:45:16;;;;;;;7.03;3.30;;;14.40;99.90;;;;;;4900925;29;20076;-68
2022/11/05 10:47:50;;;;;;;6.88;3.70;;;14.80;99.90;;;;;;4898515;29;20371;-68
2022/11/05 10:50:19;;;;;;;5.38;3.33;;;14.80;99.90;;;;;;4918378;29;20032;-69
2022/11/05 10:52:50;;;;;;;7.15;3.63;;;14.60;99.90;;;;;;4911245;29;20060;-68
2022/11/05 10:55:24;;;;;;;6.47;3.85;;;14.10;99.90;;;;;;4901190;29;20538;-69
2022/11/05 10:57:49;;;;;;;7.10;3.83;;;13.80;99.90;;;;;;4899787;29;20040;-68
2022/11/05 11:00:15;;;;;;;6.38;3.28;;;13.50;99.90;;;;;;4900868;29;20374;-68
2022/11/05 11:02:53;;;;;;;13.13;4.07;;;13.00;99.90;;;;;;4900452;29;20032;-68
2022/11/05 11:05:22;;;;;;;8.43;3.80;;;12.80;99.90;;;;;;4900920;29;20691;-67
2022/11/05 11:08:11;;;;;;;7.45;3.67;;;12.70;99.90;;;;;;4900804;29;20454;-67
2022/11/05 11:10:46;;;;;;;9.27;3.58;;;12.40;99.90;;;;;;4897570;29;20450;-67
2022/11/05 11:13:21;;;;;;;10.57;4.00;;;12.40;99.90;;;;;;4900330;29;20398;-68
2022/11/05 11:15:49;;;;;;;12.90;4.25;;;12.20;99.90;;;;;;4984242;23;20442;-71
2022/11/05 11:18:29;;;;;;;6.13;3.40;;;12.10;99.90;;;;;;4996431;28;20105;-69
2022/11/05 11:21:06;;;;;;;7.20;3.60;;;12.10;99.90;;;;;;4994987;28;20022;-69
2022/11/05 11:23:37;;;;;;;11.57;4.13;;;12.00;99.90;;;;;;4996707;28;20062;-69
2022/11/05 11:26:04;;;;;;;7.32;3.97;;;11.80;99.90;;;;;;5011340;28;20025;-70
2022/11/05 11:28:36;;;;;;;;;;;11.70;99.90;;;;;;5014568;28;20053;-70
2022/11/05 11:31:13;;;;;;;6.32;4.25;;;11.80;99.90;;;;;;5015261;28;19912;-70
2022/11/05 11:33:43;;;;;;;10.55;3.97;;;11.70;99.90;;;;;;5015532;28;20052;-70
2022/11/05 11:36:10;;;;;;;9.65;4.15;;;11.60;99.90;;;;;;5016139;28;20065;-70
2022/11/05 11:38:37;;;;;;;14.93;5.05;;;11.60;99.90;;;;;;5015272;28;20024;-70
2022/11/05 11:41:21;;;;;;;7.95;4.30;;;11.60;99.90;;;;;;5013978;28;20068;-69
2022/11/05 11:43:47;;;;;;;10.57;4.68;;;11.60;99.90;;;;;;5015123;28;20029;-69
2022/11/05 11:46:17;;;;;;;8.30;3.78;;;11.80;99.90;;;;;;5013881;28;20018;-69
2022/11/05 11:48:46;;;;;;;15.82;5.03;;;11.60;99.90;;;;;;5015722;28;20069;-69
2022/11/05 11:51:39;;;;;;;11.02;4.13;;;11.60;99.90;;;;;;5014085;28;20030;-69
2022/11/05 11:54:16;;;;;;;11.45;4.10;;;11.60;99.90;;;;;;5015206;28;20553;-68
2022/11/05 11:56:45;;;;;;;12.32;3.80;;;11.60;99.90;;;;;;5013937;28;20034;-70
2022/11/05 11:59:22;;;;;;;12.05;3.85;;;11.60;99.90;;;;;;5014989;28;20061;-69
2022/11/05 12:02:31;;;;;;;5.95;3.45;;;11.60;99.90;;;;;;5015190;28;20018;-69
2022/11/05 12:05:23;;;;;;;10.55;4.65;;;11.60;99.90;;;;;;4973739;28;20436;-68
2022/11/05 12:07:51;;;;;;;10.95;3.83;;;11.80;99.90;;;;;;4973743;28;20038;-69
2022/11/05 12:10:23;;;;;;;7.25;3.42;;;11.80;99.90;;;;;;4957520;28;20452;-69
2022/11/05 12:13:19;;;;;;;7.32;3.30;;;12.00;99.90;;;;;;4957270;28;20058;-69
2022/11/05 12:16:27;;;;;;;7.43;3.45;;;12.30;99.90;;;;;;4956854;28;20411;-70
2022/11/05 12:19:26;;;;;;;7.40;3.72;;;12.30;99.90;;;;;;4915823;29;20374;-70
2022/11/05 12:22:26;;;;;;;9.55;3.55;;;12.40;99.90;;;;;;4957478;28;20121;-70
2022/11/05 12:25:03;;;;;;;7.65;3.58;;;12.40;99.90;;;;;;4973503;28;20101;-69
2022/11/05 12:27:45;;;;;;;;;;;12.40;99.90;;;;;;4973977;28;20019;-70
2022/11/05 12:30:15;;;;;;;8.00;4.20;;;12.10;99.90;;;;;;4973607;28;19974;-69
2022/11/05 12:32:59;;;;;;;9.23;4.47;;;11.90;99.90;;;;;;4957247;28;20035;-69
2022/11/05 12:35:52;;;;;;;17.45;4.85;;;11.70;99.90;;;;;;4976390;28;20044;-70
2022/11/05 12:38:47;;;;;;;56.70;6.85;;;11.70;99.90;;;;;;5014501;28;20022;-70
2022/11/05 12:41:30;;;;;;;18.98;4.22;;;11.80;99.90;;;;;;5014527;28;20390;-69
2022/11/05 12:44:07;;;;;;;7.43;3.90;;;11.80;99.90;;;;;;5014294;28;20467;-72
2022/11/05 12:47:07;;;;;;;10.77;3.60;;;11.90;99.90;;;;;;5013840;28;20026;-69
2022/11/05 12:50:14;;;;;;;8.80;4.15;;;11.90;99.90;;;;;;5014204;28;20057;-70
2022/11/05 12:52:45;;;;;;;8.52;3.40;;;12.00;99.90;;;;;;5013447;28;20080;-70
2022/11/05 12:55:16;;;;;;;6.78;3.60;;;12.10;99.90;;;;;;5013975;28;20105;-70
2022/11/05 12:57:45;;;;;;;6.88;3.35;;;12.20;99.90;;;;;;5014938;28;20026;-70
2022/11/05 13:00:16;;;;;;;7.43;3.50;;;12.30;99.90;;;;;;5014534;28;20064;-69
2022/11/05 13:03:20;;;;;;;9.85;3.83;;;12.30;99.90;;;;;;5014593;28;20028;-70
2022/11/05 13:06:08;;;;;;;6.10;3.35;;;12.20;99.90;;;;;;5014193;28;20065;-69
2022/11/05 13:08:43;;;;;;;6.90;3.10;;;12.10;99.90;;;;;;5013224;28;20029;-69
2022/11/05 13:11:27;;;;;;;5.68;3.45;;;12.10;99.90;;;;;;5013575;28;20029;-69
2022/11/05 13:14:10;;;;;;;7.90;4.18;;;12.00;99.90;;;;;;5013900;28;20111;-69
2022/11/05 13:16:41;;;;;;;7.63;2.83;;;12.00;99.90;;;;;;5013700;28;20056;-70
2022/11/05 13:19:19;;;;;;;8.15;3.45;;;12.00;99.90;;;;;;5012469;28;20036;-69
2022/11/05 13:21:53;;;;;;;7.15;2.92;;;11.90;99.90;;;;;;5012553;28;20501;-69
2022/11/05 13:24:42;;;;;;;6.95;2.97;;;11.80;99.90;;;;;;5012562;28;20026;-69
2022/11/05 13:27:37;;;;;;;7.18;2.85;;;11.70;99.90;;;;;;5014152;28;20383;-70
2022/11/05 13:30:05;;;;;;;8.00;3.25;;;11.70;99.90;;;;;;5014862;28;20030;-70
2022/11/05 13:32:36;;;;;;;8.90;3.30;;;11.70;99.90;;;;;;5015082;28;20117;-69
2022/11/05 13:35:04;;;;;;;7.95;3.80;;;11.80;99.90;;;;;;5014502;28;20030;-69
2022/11/05 13:40:42;;;;;;;6.72;3.58;;;11.90;99.90;;;;;;5019314;28;20029;-70
2022/11/05 13:43:43;;;;;;;6.78;3.53;;;11.90;99.90;;;;;;5016277;28;20022;-68
2022/11/05 13:46:27;;;;;;;8.75;3.28;;;12.10;99.90;;;;;;5015141;28;20022;-69
2022/11/05 13:49:02;;;;;;;6.47;3.10;;;12.10;99.90;;;;;;5016128;28;20113;-70
2022/11/05 13:51:48;;;;;;;5.20;2.95;;;12.20;99.90;;;;;;5015853;28;20022;-70
2022/11/05 13:54:56;;;;;;;9.88;3.05;;;12.30;99.90;;;;;;5017449;28;20033;-68
2022/11/05 13:57:43;;;;;;;10.82;2.95;;;12.20;99.90;;;;;;5018994;28;20117;-70
2022/11/05 14:00:22;;;;;;;4.40;2.60;;;12.10;99.90;;;;;;5016526;28;20026;-69
2022/11/05 14:02:59;;;;;;;4.75;2.95;;;12.00;99.90;;;;;;5014410;28;20026;-69
2022/11/05 14:05:38;;;;;;;;;;;11.90;99.90;;;;;;5013937;28;20422;-69
2022/11/05 14:08:10;;;;;;;5.28;2.80;;;11.90;99.90;;;;;;5015284;28;19913;-70
2022/11/05 14:10:43;;;;;;;3.75;2.22;;;11.90;99.90;;;;;;5015462;28;20116;-70
2022/11/05 14:13:34;;;;;;;5.45;2.45;;;11.90;99.90;;;;;;5015842;28;20049;-70
2022/11/05 14:16:02;;;;;;;5.25;2.40;;;11.90;99.90;;;;;;5013941;28;20125;-71
2022/11/05 14:19:06;;;;;;;4.78;2.63;;;11.90;99.90;;;;;;5012703;28;20029;-70
2022/11/05 14:21:51;;;;;;;3.95;2.10;;;12.00;99.90;;;;;;5006743;28;20223;-71
2022/11/05 14:24:23;;;;;;;5.00;2.30;;;11.90;99.90;;;;;;5016856;28;20092;-69
2022/11/05 14:27:01;;;;;;;8.52;2.40;;;11.90;99.90;;;;;;5016499;28;20072;-70
2022/11/05 14:29:39;;;;;;;7.72;2.50;;;11.90;99.90;;;;;;5016481;28;20076;-70
2022/11/05 14:32:20;;;;;;;6.88;2.40;;;11.90;99.90;;;;;;5017064;28;20080;-69
2022/11/05 14:34:55;;;;;;;8.02;2.05;;;11.90;99.90;;;;;;5016711;28;20030;-69
2022/11/05 14:37:28;;;;;;;3.95;2.08;;;11.90;99.90;;;;;;5017411;28;20422;-69
2022/11/05 14:39:55;;;;;;;5.55;2.50;;;11.80;99.90;;;;;;5015544;28;20026;-68
2022/11/05 14:42:30;;;;;;;7.68;2.20;;;11.80;99.90;;;;;;5015468;28;20022;-69
2022/11/05 14:44:58;;;;;;;5.00;2.20;;;11.90;99.90;;;;;;5016070;28;20037;-70
2022/11/05 14:47:26;;;;;;;6.40;2.47;;;11.80;99.90;;;;;;5015320;28;20113;-70
2022/11/05 14:49:58;;;;;;;5.90;2.30;;;11.80;99.90;;;;;;5016588;28;20030;-69
2022/11/05 14:52:23;;;;;;;8.10;2.50;;;11.90;99.90;;;;;;5016538;28;20112;-69
2022/11/05 14:54:52;;;;;;;7.30;2.40;;;11.90;99.90;;;;;;5016237;28;20089;-70
2022/11/05 14:57:43;;;;;;;7.43;2.33;;;11.70;99.90;;;;;;5016307;28;20475;-69
2022/11/05 15:00:44;;;;;;;6.15;2.25;;;11.70;99.90;;;;;;5016097;28;20466;-69
2022/11/05 15:03:33;;;;;;;4.80;2.25;;;11.70;99.90;;;;;;4975314;28;20034;-69
2022/11/05 15:06:22;;;;;;;9.95;4.70;;;11.60;99.90;;;;;;4959244;28;20035;-69
2022/11/05 15:08:48;;;;;;;8.75;2.90;;;11.60;99.90;;;;;;4974898;28;20027;-69
2022/11/05 15:11:37;;;;;;;6.47;2.57;;;11.70;99.90;;;;;;4958943;28;20042;-69
2022/11/05 15:14:47;;;;;;;3.28;2.20;;;11.60;99.90;;;;;;4975058;28;20030;-70
2022/11/05 15:17:20;;;;;;;6.97;2.53;;;11.60;99.90;;;;;;4917075;29;20086;-69
2022/11/05 15:19:46;;;;;;;5.60;2.38;;;11.50;99.90;;;;;;4917461;29;20040;-70
2022/11/05 15:22:35;;;;;;;5.03;2.10;;;11.40;99.90;;;;;;4902070;29;20044;-69
2022/11/05 15:25:03;;;;;;;4.20;2.78;;;11.30;99.90;;;;;;4916997;29;20028;-70
2022/11/05 15:27:57;;;;;;;5.80;2.30;;;11.20;99.90;;;;;;4917030;29;20385;-69
2022/11/05 15:30:23;;;;;;;6.32;2.60;;;11.10;99.90;;;;;;4916816;29;20402;-69
2022/11/05 15:32:49;;;;;;;5.68;2.78;;;11.10;99.90;;;;;;4901156;29;20111;-69
2022/11/05 15:35:21;;;;;;;8.23;2.63;;;11.10;99.90;;;;;;4916418;29;20502;-69
2022/11/05 15:37:48;;;;;;;6.72;2.70;;;11.20;99.90;;;;;;4946424;29;20126;-70
2022/11/05 15:40:37;;;;;;;7.97;3.25;;;11.10;99.90;;;;;;4938780;29;20028;-69
2022/11/05 15:43:20;;;;;;;7.15;3.22;;;11.10;99.90;;;;;;4938824;29;20027;-69
2022/11/05 15:46:01;;;;;;;9.10;3.22;;;11.30;99.90;;;;;;4938220;29;20431;-69
2022/11/05 15:48:26;;;;;;;7.03;3.50;;;11.30;99.90;;;;;;4938849;29;20472;-70
2022/11/05 15:50:52;;;;;;;7.40;3.43;;;11.40;99.90;;;;;;4941041;29;20107;-70
2022/11/05 15:53:52;;;;;;;6.93;3.63;;;11.40;99.90;;;;;;4945557;28;20045;-68
2022/11/05 15:56:32;;;;;;;11.88;4.25;;;11.20;99.90;;;;;;4987751;28;20116;-68
2022/11/05 15:59:00;;;;;;;7.68;3.53;;;11.30;99.90;;;;;;4984503;28;20037;-69
2022/11/05 16:01:29;;;;;;;7.95;3.33;;;11.30;99.90;;;;;;4984322;28;20022;-69
2022/11/05 16:04:14;;;;;;;8.35;3.60;;;11.30;99.90;;;;;;4988635;28;20022;-69
2022/11/05 16:06:42;;;;;;;7.90;3.67;;;11.20;99.90;;;;;;4994655;28;20058;-69
2022/11/05 16:09:31;;;;;;;10.30;3.97;;;11.20;99.90;;;;;;4994018;28;20026;-69
2022/11/05 16:12:17;;;;;;;6.65;3.60;;;11.10;99.90;;;;;;4995929;28;20498;-69
2022/11/05 16:14:55;;;;;;;8.50;3.65;;;11.00;99.90;;;;;;4998932;28;20394;-69
2022/11/05 16:17:24;;;;;;;9.55;4.07;;;10.90;99.90;;;;;;5014896;28;20152;-70
2022/11/05 16:19:50;;;;;;;6.70;4.00;;;10.80;99.90;;;;;;5015110;28;20053;-69
2022/11/05 16:22:16;;;;;;;10.45;4.03;;;10.80;99.90;;;;;;4990481;28;20034;-72
2022/11/05 16:24:43;;;;;;;8.38;3.58;;;10.80;99.90;;;;;;4975482;28;20027;-71
2022/11/05 16:27:14;;;;;;;14.63;4.30;;;10.70;99.90;;;;;;4991117;28;20019;-71
2022/11/05 16:29:48;;;;;;;7.30;2.85;;;10.70;99.90;;;;;;4975711;28;20031;-70
2022/11/05 16:32:26;;;;;;;6.13;2.95;;;10.60;99.90;;;;;;4976609;28;20022;-74
2022/11/05 16:34:55;;;;;;;7.47;3.78;;;10.60;99.90;;;;;;4976729;28;20046;-72
2022/11/05 16:37:24;;;;;;;8.82;3.88;;;10.50;99.90;;;;;;4994588;28;20033;-72
2022/11/05 16:39:50;;;;;;;8.23;3.42;;;10.50;99.90;;;;;;4996060;28;20380;-71
2022/11/05 16:42:22;;;;;;;11.10;4.55;;;10.50;99.90;;;;;;4993840;28;20113;-69
2022/11/05 16:44:48;;;;;;;9.77;3.95;;;10.40;99.90;;;;;;4994815;28;20023;-73
2022/11/05 16:47:14;;;;;;;6.70;3.88;;;10.40;99.90;;;;;;4993945;28;20026;-71
2022/11/05 16:49:40;;;;;;;9.77;4.07;;;10.40;99.90;;;;;;4993519;28;20114;-73
2022/11/05 16:52:11;;;;;;;11.03;3.50;;;10.30;99.90;;;;;;4993373;28;20502;-73
2022/11/05 16:54:36;;;;;;;9.07;4.00;;;10.30;99.90;;;;;;4993111;28;20599;-75
2022/11/05 16:57:10;;;;;;;7.13;3.00;;;10.20;99.90;;;;;;4993759;28;20034;-75
2022/11/05 16:59:35;;;;;;;9.70;4.15;;;10.20;99.90;;;;;;4993464;28;20069;-69
2022/11/05 17:02:01;;;;;;;9.93;4.23;;;10.20;99.90;;;;;;4993069;28;20022;-70
2022/11/05 17:04:26;;;;;;;7.33;4.23;;;10.20;99.90;;;;;;4993199;28;20026;-70
2022/11/05 17:06:52;;;;;;;7.47;4.07;;;10.30;99.90;;;;;;4993098;28;20064;-71
2022/11/05 17:09:17;;;;;;;8.53;3.63;;;10.20;99.90;;;;;;4994625;28;20030;-71
2022/11/05 17:11:43;;;;;;;7.87;3.70;;;10.10;99.90;;;;;;4993251;28;20034;-74
2022/11/05 17:14:11;;;;;;;9.83;5.77;;;10.00;99.90;;;;;;4994678;28;20042;-72
2022/11/05 17:16:38;;;;;;;10.77;5.50;;;9.90;99.90;;;;;;5010131;23;20042;-67
2022/11/05 17:19:04;;;;;;;12.68;6.30;;;9.90;99.90;;;;;;4992883;28;20057;-68
2022/11/05 17:21:29;;;;;;;13.10;4.70;;;9.80;99.90;;;;;;4993284;28;20062;-67
2022/11/05 17:23:55;;;;;;;11.57;4.30;;;9.90;99.90;;;;;;4985836;28;20030;-67
2022/11/05 17:26:21;;;;;;;9.87;3.80;;;9.90;99.90;;;;;;4979117;28;20425;-67
2022/11/05 17:28:47;;;;;;;;;;;9.80;99.90;;;;;;4994371;28;20114;-67
2022/11/05 17:31:13;;;;;;;15.68;6.82;;;9.80;99.90;;;;;;4993631;28;20353;-67
2022/11/05 17:33:39;;;;;;;;;;;9.80;99.90;;;;;;4993901;28;20089;-67
2022/11/05 17:36:11;;;;;;;11.40;5.88;;;9.80;99.90;;;;;;4993994;28;20372;-67
2022/11/05 17:38:37;;;;;;;10.63;5.50;;;9.70;99.90;;;;;;4994332;28;20022;-68
2022/11/05 17:41:14;;;;;;;10.77;4.88;;;9.70;99.90;;;;;;4994054;28;20503;-68
2022/11/05 17:43:40;;;;;;;10.68;5.22;;;9.60;99.90;;;;;;4994353;28;20138;-68
2022/11/05 17:46:10;;;;;;;12.40;4.93;;;9.60;99.90;;;;;;4991634;28;21111;-67
2022/11/05 17:48:37;;;;;;;14.93;7.22;;;9.60;99.90;;;;;;4974457;28;20031;-67
2022/11/05 17:51:08;;;;;;;18.48;8.30;;;9.60;99.90;;;;;;4974536;28;20507;-74
2022/11/05 17:53:33;;;;;;;11.73;6.22;;;9.40;99.90;;;;;;4991022;28;20030;-68
2022/11/05 17:55:59;;;;;;;13.73;8.43;;;9.40;99.90;;;;;;4992467;28;20506;-67
2022/11/05 17:58:24;;;;;;;11.63;6.47;;;9.40;99.90;;;;;;4995347;28;20030;-67
2022/11/05 18:00:50;;;;;;;14.47;6.63;;;9.40;99.90;;;;;;4996155;28;20029;-68
2022/11/05 18:03:15;;;;;;;11.23;6.63;;;9.50;99.90;;;;;;4997421;28;20332;-68
2022/11/05 18:05:41;;;;;;;24.30;13.13;;;9.40;99.90;;;;;;4996084;28;20074;-68
2022/11/05 18:08:08;;;;;;;11.18;6.47;;;9.40;99.90;;;;;;4997649;28;20027;-71
2022/11/05 18:10:37;;;;;;;17.60;9.95;;;9.40;99.90;;;;;;4997612;28;20475;-74
2022/11/05 18:13:03;;;;;;;16.23;8.75;;;9.30;99.90;;;;;;4997708;28;20411;-73
2022/11/05 18:15:29;;;;;;;18.25;10.73;;;9.30;99.90;;;;;;4995865;28;20034;-70
2022/11/05 18:17:54;;;;;;;16.10;8.90;;;9.20;99.90;;;;;;4995809;28;20085;-73